Main page
METAR-TAF:

METAR-TAF

Airports :

Colmenar Viejo, Spain

latitude: 40-39N, longitude: 003-44W, elevation: -999 m

Current weather observation

The report was made 4 hours and 11 minutes ago, at 18:00 UTC
Calm wind
Temperature 5°C
Humidity 81%
Pressure 1025 hPa
Visibility 10 km or more
no clouds below 1500 m and no cumulonimbus

METAR: LECV 101800Z 00000KT CAVOK 05/02 Q1025

Time: 23:11 (22:11 UTC)

Forecast

The report was made 5 hours and 11 minutes ago, at 17:00 UTC
Forecast valid from 10 at 18 UTC to 11 at 03 UTC
Wind 5 kt from variable directions
Visibility 10 km or more
no clouds below 1500 m and no cumulonimbus

TAF: LECV 101700Z 1018/1103 VRB05KT CAVOK

Weather observations and forecasts of more than 4000 airports (METAR and TAF reports).

The available stations are represented by yellow and red dots on the map.

Hover mouse over dot to see the name of the station.

Then click to see weather observations and forecasts.

To change the map : click on the green buttons with a black cross to zoom in, on the green button with a dash to zoom out, or on the green arrows for adjacent maps.


METAR-TAF: